sensor_id;sensor_type;location;lat;lon;timestamp;temperature;humidity
18091;DHT22;9172;49.948;9.208;2024-01-11T00:00:38;-2.80;99.90
18091;DHT22;9172;49.948;9.208;2024-01-11T00:03:07;-2.80;99.90
18091;DHT22;9172;49.948;9.208;2024-01-11T00:05:35;-2.80;99.90
18091;DHT22;9172;49.948;9.208;2024-01-11T00:08:05;-2.80;99.90
18091;DHT22;9172;49.948;9.208;2024-01-11T00:10:33;-2.70;99.90
18091;DHT22;9172;49.948;9.208;2024-01-11T00:13:02;-2.80;99.90
18091;DHT22;9172;49.948;9.208;2024-01-11T00:15:31;-2.80;99.90
18091;DHT22;9172;49.948;9.208;2024-01-11T00:18:00;-2.80;99.90
18091;DHT22;9172;49.948;9.208;2024-01-11T00:20:28;-2.90;99.90
18091;DHT22;9172;49.948;9.208;2024-01-11T00:22:57;-2.90;99.90
18091;DHT22;9172;49.948;9.208;2024-01-11T00:25:25;-2.80;99.90
18091;DHT22;9172;49.948;9.208;2024-01-11T00:27:54;-2.80;99.90
18091;DHT22;9172;49.948;9.208;2024-01-11T00:30:22;-2.80;99.90
18091;DHT22;9172;49.948;9.208;2024-01-11T00:32:51;-2.90;99.90
18091;DHT22;9172;49.948;9.208;2024-01-11T00:35:20;-2.90;99.90
18091;DHT22;9172;49.948;9.208;2024-01-11T00:37:48;-2.90;99.90
18091;DHT22;9172;49.948;9.208;2024-01-11T00:40:17;-2.90;99.90
18091;DHT22;9172;49.948;9.208;2024-01-11T00:42:45;-2.90;99.90
18091;DHT22;9172;49.948;9.208;2024-01-11T00:45:14;-2.90;99.90
18091;DHT22;9172;49.948;9.208;2024-01-11T00:47:43;-3.00;99.90
18091;DHT22;9172;49.948;9.208;2024-01-11T00:50:11;-3.00;99.90
18091;DHT22;9172;49.948;9.208;2024-01-11T00:52:40;-3.00;99.90
18091;DHT22;9172;49.948;9.208;2024-01-11T00:55:08;-3.00;99.90
18091;DHT22;9172;49.948;9.208;2024-01-11T00:57:37;-3.00;99.90
18091;DHT22;9172;49.948;9.208;2024-01-11T01:00:09;-3.00;99.90
18091;DHT22;9172;49.948;9.208;2024-01-11T01:02:38;-3.00;99.90
18091;DHT22;9172;49.948;9.208;2024-01-11T01:05:08;-3.00;99.90
18091;DHT22;9172;49.948;9.208;2024-01-11T01:07:36;-3.00;99.90
18091;DHT22;9172;49.948;9.208;2024-01-11T01:10:07;-3.00;99.90
18091;DHT22;9172;49.948;9.208;2024-01-11T01:12:36;-3.00;99.90
18091;DHT22;9172;49.948;9.208;2024-01-11T01:15:06;-3.00;99.90
18091;DHT22;9172;49.948;9.208;2024-01-11T01:17:35;-3.00;99.90
18091;DHT22;9172;49.948;9.208;2024-01-11T01:20:05;-3.00;99.90
18091;DHT22;9172;49.948;9.208;2024-01-11T01:22:34;-3.00;99.90
18091;DHT22;9172;49.948;9.208;2024-01-11T01:25:04;-3.00;99.90
18091;DHT22;9172;49.948;9.208;2024-01-11T01:27:33;-3.00;99.90
18091;DHT22;9172;49.948;9.208;2024-01-11T01:30:01;-2.90;99.90
18091;DHT22;9172;49.948;9.208;2024-01-11T01:32:30;-3.00;99.90
18091;DHT22;9172;49.948;9.208;2024-01-11T01:34:58;-3.00;99.90
18091;DHT22;9172;49.948;9.208;2024-01-11T01:37:27;-3.00;99.90
18091;DHT22;9172;49.948;9.208;2024-01-11T01:39:55;-3.00;99.90
18091;DHT22;9172;49.948;9.208;2024-01-11T01:42:24;-3.00;99.90
18091;DHT22;9172;49.948;9.208;2024-01-11T01:44:52;-3.00;99.90
18091;DHT22;9172;49.948;9.208;2024-01-11T01:47:21;-3.00;99.90
18091;DHT22;9172;49.948;9.208;2024-01-11T01:49:50;-3.10;99.90
18091;DHT22;9172;49.948;9.208;2024-01-11T01:52:20;-3.30;99.90
18091;DHT22;9172;49.948;9.208;2024-01-11T01:54:50;-3.40;99.90
18091;DHT22;9172;49.948;9.208;2024-01-11T01:57:20;-3.50;99.90
18091;DHT22;9172;49.948;9.208;2024-01-11T01:59:51;-3.70;99.90
18091;DHT22;9172;49.948;9.208;2024-01-11T02:02:21;-3.60;99.90
18091;DHT22;9172;49.948;9.208;2024-01-11T02:04:50;-3.50;99.90
18091;DHT22;9172;49.948;9.208;2024-01-11T02:07:20;-3.40;99.90
18091;DHT22;9172;49.948;9.208;2024-01-11T02:09:48;-3.30;99.90
18091;DHT22;9172;49.948;9.208;2024-01-11T02:12:17;-3.30;99.90
18091;DHT22;9172;49.948;9.208;2024-01-11T02:14:46;-3.20;99.90
18091;DHT22;9172;49.948;9.208;2024-01-11T02:17:14;-3.20;99.90
18091;DHT22;9172;49.948;9.208;2024-01-11T02:19:43;-3.30;99.90
18091;DHT22;9172;49.948;9.208;2024-01-11T02:22:15;-3.20;99.90
18091;DHT22;9172;49.948;9.208;2024-01-11T02:24:44;-3.20;99.90
18091;DHT22;9172;49.948;9.208;2024-01-11T02:27:13;-3.30;99.90
18091;DHT22;9172;49.948;9.208;2024-01-11T02:29:42;-3.30;99.90
18091;DHT22;9172;49.948;9.208;2024-01-11T02:32:10;-3.30;99.90
18091;DHT22;9172;49.948;9.208;2024-01-11T02:34:39;-3.30;99.90
18091;DHT22;9172;49.948;9.208;2024-01-11T02:37:08;-5.00;99.90
18091;DHT22;9172;49.948;9.208;2024-01-11T02:39:37;-3.20;99.90
18091;DHT22;9172;49.948;9.208;2024-01-11T02:42:05;-3.20;99.90
18091;DHT22;9172;49.948;9.208;2024-01-11T02:44:34;-2.80;99.90
18091;DHT22;9172;49.948;9.208;2024-01-11T02:47:04;-3.10;99.90
18091;DHT22;9172;49.948;9.208;2024-01-11T02:49:33;-3.10;99.90
18091;DHT22;9172;49.948;9.208;2024-01-11T02:52:01;-3.10;99.90
18091;DHT22;9172;49.948;9.208;2024-01-11T02:54:31;-3.20;99.90
18091;DHT22;9172;49.948;9.208;2024-01-11T02:56:59;-3.30;99.90
18091;DHT22;9172;49.948;9.208;2024-01-11T02:59:28;-3.30;99.90
18091;DHT22;9172;49.948;9.208;2024-01-11T03:01:56;-3.30;99.90
18091;DHT22;9172;49.948;9.208;2024-01-11T03:04:25;-3.30;99.90
18091;DHT22;9172;49.948;9.208;2024-01-11T03:06:53;-3.50;99.90
18091;DHT22;9172;49.948;9.208;2024-01-11T03:09:22;-3.70;99.90
18091;DHT22;9172;49.948;9.208;2024-01-11T03:11:51;-3.70;99.90
18091;DHT22;9172;49.948;9.208;2024-01-11T03:14:19;-3.60;99.90
18091;DHT22;9172;49.948;9.208;2024-01-11T03:16:48;-3.50;99.90
18091;DHT22;9172;49.948;9.208;2024-01-11T03:19:16;-1.40;99.90
18091;DHT22;9172;49.948;9.208;2024-01-11T03:21:46;-3.50;99.90
18091;DHT22;9172;49.948;9.208;2024-01-11T03:24:15;-3.40;99.90
18091;DHT22;9172;49.948;9.208;2024-01-11T03:26:43;-3.40;99.90
18091;DHT22;9172;49.948;9.208;2024-01-11T03:29:12;-3.50;99.90
18091;DHT22;9172;49.948;9.208;2024-01-11T03:31:40;-3.50;99.90
18091;DHT22;9172;49.948;9.208;2024-01-11T03:34:10;-3.50;99.90
18091;DHT22;9172;49.948;9.208;2024-01-11T03:36:39;-3.50;99.90
18091;DHT22;9172;49.948;9.208;2024-01-11T03:39:08;-3.50;99.90
18091;DHT22;9172;49.948;9.208;2024-01-11T03:41:36;-3.40;99.90
18091;DHT22;9172;49.948;9.208;2024-01-11T03:44:05;-3.40;99.90
18091;DHT22;9172;49.948;9.208;2024-01-11T03:46:33;-3.40;99.90
18091;DHT22;9172;49.948;9.208;2024-01-11T03:49:02;-3.40;99.90
18091;DHT22;9172;49.948;9.208;2024-01-11T03:51:30;-3.40;99.90
18091;DHT22;9172;49.948;9.208;2024-01-11T03:53:59;-3.40;99.90
18091;DHT22;9172;49.948;9.208;2024-01-11T03:56:27;-3.40;99.90
18091;DHT22;9172;49.948;9.208;2024-01-11T03:58:56;-3.40;99.90
18091;DHT22;9172;49.948;9.208;2024-01-11T04:01:26;-3.40;99.90
18091;DHT22;9172;49.948;9.208;2024-01-11T04:03:55;-3.40;99.90
18091;DHT22;9172;49.948;9.208;2024-01-11T04:06:25;-3.50;99.90
18091;DHT22;9172;49.948;9.208;2024-01-11T04:08:54;-3.50;99.90
18091;DHT22;9172;49.948;9.208;2024-01-11T04:11:22;-3.50;99.90
18091;DHT22;9172;49.948;9.208;2024-01-11T04:13:51;-3.50;99.90
18091;DHT22;9172;49.948;9.208;2024-01-11T04:16:20;-3.50;99.90
18091;DHT22;9172;49.948;9.208;2024-01-11T04:18:49;-3.50;99.90
18091;DHT22;9172;49.948;9.208;2024-01-11T04:21:22;-3.50;99.90
18091;DHT22;9172;49.948;9.208;2024-01-11T04:23:51;-3.60;99.90
18091;DHT22;9172;49.948;9.208;2024-01-11T04:26:20;-3.60;99.90
18091;DHT22;9172;49.948;9.208;2024-01-11T04:28:52;-3.60;99.90
18091;DHT22;9172;49.948;9.208;2024-01-11T04:31:20;-3.60;99.90
18091;DHT22;9172;49.948;9.208;2024-01-11T04:33:49;-3.60;99.90
18091;DHT22;9172;49.948;9.208;2024-01-11T04:36:18;-3.60;99.90
18091;DHT22;9172;49.948;9.208;2024-01-11T04:38:46;-3.60;99.90
18091;DHT22;9172;49.948;9.208;2024-01-11T04:41:15;-3.60;99.90
18091;DHT22;9172;49.948;9.208;2024-01-11T04:43:45;-3.60;99.90
18091;DHT22;9172;49.948;9.208;2024-01-11T04:46:15;-3.60;99.90
18091;DHT22;9172;49.948;9.208;2024-01-11T04:48:44;-3.70;99.90
18091;DHT22;9172;49.948;9.208;2024-01-11T04:51:15;-3.90;99.90
18091;DHT22;9172;49.948;9.208;2024-01-11T04:53:44;-4.00;99.90
18091;DHT22;9172;49.948;9.208;2024-01-11T04:56:15;-4.00;99.90
18091;DHT22;9172;49.948;9.208;2024-01-11T04:58:44;-4.10;99.90
18091;DHT22;9172;49.948;9.208;2024-01-11T05:01:13;-4.10;99.90
18091;DHT22;9172;49.948;9.208;2024-01-11T05:03:42;-4.10;99.90
18091;DHT22;9172;49.948;9.208;2024-01-11T05:06:16;-4.00;99.90
18091;DHT22;9172;49.948;9.208;2024-01-11T05:08:45;-3.90;99.90
18091;DHT22;9172;49.948;9.208;2024-01-11T05:11:18;-4.00;99.90
18091;DHT22;9172;49.948;9.208;2024-01-11T05:13:47;-4.00;99.90
18091;DHT22;9172;49.948;9.208;2024-01-11T05:16:22;-4.00;99.90
18091;DHT22;9172;49.948;9.208;2024-01-11T05:18:52;-3.90;99.90
18091;DHT22;9172;49.948;9.208;2024-01-11T05:21:21;-3.90;99.90
18091;DHT22;9172;49.948;9.208;2024-01-11T05:23:50;-3.80;99.90
18091;DHT22;9172;49.948;9.208;2024-01-11T05:26:20;-3.80;99.90
18091;DHT22;9172;49.948;9.208;2024-01-11T05:28:49;-3.70;99.90
18091;DHT22;9172;49.948;9.208;2024-01-11T05:31:17;-3.70;99.90
18091;DHT22;9172;49.948;9.208;2024-01-11T05:33:46;-3.80;99.90
18091;DHT22;9172;49.948;9.208;2024-01-11T05:36:15;-4.00;99.90
18091;DHT22;9172;49.948;9.208;2024-01-11T05:38:44;-4.10;99.90
18091;DHT22;9172;49.948;9.208;2024-01-11T05:41:13;-4.30;99.90
18091;DHT22;9172;49.948;9.208;2024-01-11T05:43:42;-4.40;99.90
18091;DHT22;9172;49.948;9.208;2024-01-11T05:46:11;-4.30;99.90
18091;DHT22;9172;49.948;9.208;2024-01-11T05:48:40;-4.30;99.90
18091;DHT22;9172;49.948;9.208;2024-01-11T05:51:09;-4.20;99.90
18091;DHT22;9172;49.948;9.208;2024-01-11T05:53:38;-4.10;99.90
18091;DHT22;9172;49.948;9.208;2024-01-11T05:56:13;-4.00;99.90
18091;DHT22;9172;49.948;9.208;2024-01-11T05:58:41;-4.10;99.90
18091;DHT22;9172;49.948;9.208;2024-01-11T06:03:49;-4.00;99.90
18091;DHT22;9172;49.948;9.208;2024-01-11T06:06:26;-3.90;99.90
18091;DHT22;9172;49.948;9.208;2024-01-11T06:09:04;-3.90;99.90
18091;DHT22;9172;49.948;9.208;2024-01-11T06:11:41;-3.90;99.90
18091;DHT22;9172;49.948;9.208;2024-01-11T06:16:47;-4.30;99.90
18091;DHT22;9172;49.948;9.208;2024-01-11T06:19:15;-4.30;99.90
18091;DHT22;9172;49.948;9.208;2024-01-11T06:21:55;-4.30;99.90
18091;DHT22;9172;49.948;9.208;2024-01-11T06:24:26;-4.30;99.90
18091;DHT22;9172;49.948;9.208;2024-01-11T06:26:56;-4.50;99.90
18091;DHT22;9172;49.948;9.208;2024-01-11T06:29:25;-4.60;99.90
18091;DHT22;9172;49.948;9.208;2024-01-11T06:34:30;-4.60;99.90
18091;DHT22;9172;49.948;9.208;2024-01-11T06:36:58;-4.50;99.90
18091;DHT22;9172;49.948;9.208;2024-01-11T06:39:27;-4.40;99.90
18091;DHT22;9172;49.948;9.208;2024-01-11T06:41:57;-4.30;99.90
18091;DHT22;9172;49.948;9.208;2024-01-11T06:44:26;-4.50;99.90
18091;DHT22;9172;49.948;9.208;2024-01-11T06:46:55;-4.60;99.90
18091;DHT22;9172;49.948;9.208;2024-01-11T06:49:23;-4.60;99.90
18091;DHT22;9172;49.948;9.208;2024-01-11T06:51:52;-4.60;99.90
18091;DHT22;9172;49.948;9.208;2024-01-11T06:54:20;-4.50;99.90
18091;DHT22;9172;49.948;9.208;2024-01-11T06:56:49;-4.40;99.90
18091;DHT22;9172;49.948;9.208;2024-01-11T06:59:17;-4.30;99.90
18091;DHT22;9172;49.948;9.208;2024-01-11T07:01:46;-4.20;99.90
18091;DHT22;9172;49.948;9.208;2024-01-11T07:04:15;-4.20;99.90
18091;DHT22;9172;49.948;9.208;2024-01-11T07:06:43;-4.10;99.90
18091;DHT22;9172;49.948;9.208;2024-01-11T07:09:12;-4.10;99.90
18091;DHT22;9172;49.948;9.208;2024-01-11T07:11:42;-4.10;99.90
18091;DHT22;9172;49.948;9.208;2024-01-11T07:14:10;-4.10;99.90
18091;DHT22;9172;49.948;9.208;2024-01-11T07:16:39;-4.20;99.90
18091;DHT22;9172;49.948;9.208;2024-01-11T07:19:07;-4.40;99.90
18091;DHT22;9172;49.948;9.208;2024-01-11T07:21:36;-4.80;99.90
18091;DHT22;9172;49.948;9.208;2024-01-11T07:24:05;-5.10;99.90
18091;DHT22;9172;49.948;9.208;2024-01-11T07:26:33;-5.10;99.90
18091;DHT22;9172;49.948;9.208;2024-01-11T07:29:02;-5.00;99.90
18091;DHT22;9172;49.948;9.208;2024-01-11T07:31:30;-4.90;99.90
18091;DHT22;9172;49.948;9.208;2024-01-11T07:33:59;-4.90;99.90
18091;DHT22;9172;49.948;9.208;2024-01-11T07:36:28;-5.10;99.90
18091;DHT22;9172;49.948;9.208;2024-01-11T07:38:57;-5.10;99.90
18091;DHT22;9172;49.948;9.208;2024-01-11T07:41:25;-4.70;99.90
18091;DHT22;9172;49.948;9.208;2024-01-11T07:43:54;-5.20;99.90
18091;DHT22;9172;49.948;9.208;2024-01-11T07:49:46;-5.10;99.90
18091;DHT22;9172;49.948;9.208;2024-01-11T07:52:15;-5.10;99.90
18091;DHT22;9172;49.948;9.208;2024-01-11T07:54:43;-5.00;99.90
18091;DHT22;9172;49.948;9.208;2024-01-11T07:57:13;-4.90;99.90
18091;DHT22;9172;49.948;9.208;2024-01-11T07:59:41;-4.80;99.90
18091;DHT22;9172;49.948;9.208;2024-01-11T08:02:10;-4.70;99.90
18091;DHT22;9172;49.948;9.208;2024-01-11T08:04:38;-4.60;99.90
18091;DHT22;9172;49.948;9.208;2024-01-11T08:07:07;-4.50;99.90
18091;DHT22;9172;49.948;9.208;2024-01-11T08:09:36;-4.40;99.90
18091;DHT22;9172;49.948;9.208;2024-01-11T08:12:07;-4.50;99.90
18091;DHT22;9172;49.948;9.208;2024-01-11T08:14:35;-4.40;99.90
18091;DHT22;9172;49.948;9.208;2024-01-11T08:17:04;-4.40;99.90
18091;DHT22;9172;49.948;9.208;2024-01-11T08:19:32;-4.40;99.90
18091;DHT22;9172;49.948;9.208;2024-01-11T08:22:01;-4.30;99.90
18091;DHT22;9172;49.948;9.208;2024-01-11T08:24:30;-4.40;99.90
18091;DHT22;9172;49.948;9.208;2024-01-11T08:26:58;-4.50;99.90
18091;DHT22;9172;49.948;9.208;2024-01-11T08:29:27;-4.40;99.90
18091;DHT22;9172;49.948;9.208;2024-01-11T08:31:56;-4.40;99.90
18091;DHT22;9172;49.948;9.208;2024-01-11T08:34:25;-4.40;99.90
18091;DHT22;9172;49.948;9.208;2024-01-11T08:36:54;-4.20;99.90
18091;DHT22;9172;49.948;9.208;2024-01-11T08:39:22;-4.10;99.90
18091;DHT22;9172;49.948;9.208;2024-01-11T08:41:51;-4.00;99.90
18091;DHT22;9172;49.948;9.208;2024-01-11T08:44:20;-4.10;99.90
18091;DHT22;9172;49.948;9.208;2024-01-11T08:46:48;-4.10;99.90
18091;DHT22;9172;49.948;9.208;2024-01-11T08:49:16;-4.10;99.90
18091;DHT22;9172;49.948;9.208;2024-01-11T08:51:46;-4.00;99.90
18091;DHT22;9172;49.948;9.208;2024-01-11T08:54:15;-3.90;99.90
18091;DHT22;9172;49.948;9.208;2024-01-11T08:56:43;-3.90;99.90
18091;DHT22;9172;49.948;9.208;2024-01-11T08:59:12;-4.00;99.90
18091;DHT22;9172;49.948;9.208;2024-01-11T09:01:40;-4.00;99.90
18091;DHT22;9172;49.948;9.208;2024-01-11T09:04:09;-4.10;99.90
18091;DHT22;9172;49.948;9.208;2024-01-11T09:06:37;-4.10;99.90
18091;DHT22;9172;49.948;9.208;2024-01-11T09:09:06;-4.20;99.90
18091;DHT22;9172;49.948;9.208;2024-01-11T09:11:36;-4.10;99.90
18091;DHT22;9172;49.948;9.208;2024-01-11T09:14:05;-4.10;99.90
18091;DHT22;9172;49.948;9.208;2024-01-11T09:16:34;-4.10;99.90
18091;DHT22;9172;49.948;9.208;2024-01-11T09:19:03;-4.00;99.90
18091;DHT22;9172;49.948;9.208;2024-01-11T09:21:32;-3.90;99.90
18091;DHT22;9172;49.948;9.208;2024-01-11T09:24:00;-3.90;99.90
18091;DHT22;9172;49.948;9.208;2024-01-11T09:26:29;-3.80;99.90
18091;DHT22;9172;49.948;9.208;2024-01-11T09:28:57;-3.70;99.90
18091;DHT22;9172;49.948;9.208;2024-01-11T09:31:26;-3.70;99.90
18091;DHT22;9172;49.948;9.208;2024-01-11T09:33:56;-3.60;99.90
18091;DHT22;9172;49.948;9.208;2024-01-11T09:36:25;-3.50;99.90
18091;DHT22;9172;49.948;9.208;2024-01-11T09:38:53;-3.50;99.90
18091;DHT22;9172;49.948;9.208;2024-01-11T09:41:22;-3.50;99.90
18091;DHT22;9172;49.948;9.208;2024-01-11T09:43:53;-3.60;99.90
18091;DHT22;9172;49.948;9.208;2024-01-11T09:46:23;-3.60;99.90
18091;DHT22;9172;49.948;9.208;2024-01-11T09:48:52;-3.50;99.90
18091;DHT22;9172;49.948;9.208;2024-01-11T09:51:22;-3.40;99.90
18091;DHT22;9172;49.948;9.208;2024-01-11T09:53:52;-3.30;99.90
18091;DHT22;9172;49.948;9.208;2024-01-11T09:56:22;-3.30;99.90
18091;DHT22;9172;49.948;9.208;2024-01-11T09:58:51;-3.20;99.90
18091;DHT22;9172;49.948;9.208;2024-01-11T10:01:20;-3.10;99.90
18091;DHT22;9172;49.948;9.208;2024-01-11T10:06:33;-3.00;99.90
18091;DHT22;9172;49.948;9.208;2024-01-11T10:09:02;-3.00;99.90
18091;DHT22;9172;49.948;9.208;2024-01-11T10:11:31;-3.10;99.90
18091;DHT22;9172;49.948;9.208;2024-01-11T10:14:01;-3.00;99.90
18091;DHT22;9172;49.948;9.208;2024-01-11T10:16:30;-3.00;99.90
18091;DHT22;9172;49.948;9.208;2024-01-11T10:18:59;-2.90;99.90
18091;DHT22;9172;49.948;9.208;2024-01-11T10:24:05;-2.80;99.90
18091;DHT22;9172;49.948;9.208;2024-01-11T10:26:34;-2.80;99.90
18091;DHT22;9172;49.948;9.208;2024-01-11T10:29:04;-2.80;99.90
18091;DHT22;9172;49.948;9.208;2024-01-11T10:31:35;-2.70;99.90
18091;DHT22;9172;49.948;9.208;2024-01-11T10:34:05;-2.60;99.90
18091;DHT22;9172;49.948;9.208;2024-01-11T10:36:34;-2.60;99.90
18091;DHT22;9172;49.948;9.208;2024-01-11T10:39:04;-2.50;99.90
18091;DHT22;9172;49.948;9.208;2024-01-11T10:44:15;-2.40;99.90
18091;DHT22;9172;49.948;9.208;2024-01-11T10:46:45;-2.30;99.90
18091;DHT22;9172;49.948;9.208;2024-01-11T10:49:17;-2.10;99.90
18091;DHT22;9172;49.948;9.208;2024-01-11T10:54:25;-2.00;99.90
18091;DHT22;9172;49.948;9.208;2024-01-11T10:56:55;-1.90;99.90
18091;DHT22;9172;49.948;9.208;2024-01-11T10:59:24;-1.90;99.90
18091;DHT22;9172;49.948;9.208;2024-01-11T11:01:55;-1.90;99.90
18091;DHT22;9172;49.948;9.208;2024-01-11T11:04:25;-1.80;99.90
18091;DHT22;9172;49.948;9.208;2024-01-11T11:06:56;-1.80;99.90
18091;DHT22;9172;49.948;9.208;2024-01-11T11:09:25;-1.70;99.90
18091;DHT22;9172;49.948;9.208;2024-01-11T11:11:58;-1.60;99.90
18091;DHT22;9172;49.948;9.208;2024-01-11T11:14:26;-1.60;99.90
18091;DHT22;9172;49.948;9.208;2024-01-11T11:16:56;-1.50;99.90
18091;DHT22;9172;49.948;9.208;2024-01-11T11:19:25;-1.40;99.90
18091;DHT22;9172;49.948;9.208;2024-01-11T11:21:54;-1.30;99.90
18091;DHT22;9172;49.948;9.208;2024-01-11T11:24:22;-1.30;99.90
18091;DHT22;9172;49.948;9.208;2024-01-11T11:26:51;-1.30;99.90
18091;DHT22;9172;49.948;9.208;2024-01-11T11:29:20;-1.30;99.90
18091;DHT22;9172;49.948;9.208;2024-01-11T11:31:49;-1.20;99.90
18091;DHT22;9172;49.948;9.208;2024-01-11T11:34:21;-1.20;99.90
18091;DHT22;9172;49.948;9.208;2024-01-11T11:36:51;-1.10;99.90
18091;DHT22;9172;49.948;9.208;2024-01-11T11:39:21;-1.10;99.90
18091;DHT22;9172;49.948;9.208;2024-01-11T11:41:51;-1.00;99.90
18091;DHT22;9172;49.948;9.208;2024-01-11T11:44:22;-1.00;99.90
18091;DHT22;9172;49.948;9.208;2024-01-11T11:46:52;-1.00;99.90
18091;DHT22;9172;49.948;9.208;2024-01-11T11:49:21;-1.00;99.90
18091;DHT22;9172;49.948;9.208;2024-01-11T11:51:50;-0.90;99.90
18091;DHT22;9172;49.948;9.208;2024-01-11T11:54:18;-0.90;99.90
18091;DHT22;9172;49.948;9.208;2024-01-11T11:56:51;-0.90;99.90
18091;DHT22;9172;49.948;9.208;2024-01-11T11:59:20;-0.80;99.90
18091;DHT22;9172;49.948;9.208;2024-01-11T12:01:49;-0.70;99.90
18091;DHT22;9172;49.948;9.208;2024-01-11T12:04:18;-0.70;99.90
18091;DHT22;9172;49.948;9.208;2024-01-11T12:06:47;-0.70;99.90
18091;DHT22;9172;49.948;9.208;2024-01-11T12:09:18;-0.70;99.90
18091;DHT22;9172;49.948;9.208;2024-01-11T12:11:49;-0.60;99.90
18091;DHT22;9172;49.948;9.208;2024-01-11T12:14:18;-0.60;99.90
18091;DHT22;9172;49.948;9.208;2024-01-11T12:19:32;-0.50;99.90
18091;DHT22;9172;49.948;9.208;2024-01-11T12:22:01;-0.50;99.90
18091;DHT22;9172;49.948;9.208;2024-01-11T12:24:30;-0.50;99.90
18091;DHT22;9172;49.948;9.208;2024-01-11T12:26:58;-0.60;99.90
18091;DHT22;9172;49.948;9.208;2024-01-11T12:29:30;-0.50;99.90
18091;DHT22;9172;49.948;9.208;2024-01-11T12:31:59;-0.50;99.90
18091;DHT22;9172;49.948;9.208;2024-01-11T12:34:28;-0.50;99.90
18091;DHT22;9172;49.948;9.208;2024-01-11T12:36:58;-0.40;99.90
18091;DHT22;9172;49.948;9.208;2024-01-11T12:39:28;-0.40;99.90
18091;DHT22;9172;49.948;9.208;2024-01-11T12:41:56;-0.40;99.90
18091;DHT22;9172;49.948;9.208;2024-01-11T12:44:25;-0.40;99.90
18091;DHT22;9172;49.948;9.208;2024-01-11T12:46:54;-0.40;99.90
18091;DHT22;9172;49.948;9.208;2024-01-11T12:49:23;-0.40;99.90
18091;DHT22;9172;49.948;9.208;2024-01-11T12:51:52;-0.40;99.90
18091;DHT22;9172;49.948;9.208;2024-01-11T12:54:21;-0.40;99.90
18091;DHT22;9172;49.948;9.208;2024-01-11T12:56:50;-0.40;99.90
18091;DHT22;9172;49.948;9.208;2024-01-11T12:59:19;-0.40;99.90
18091;DHT22;9172;49.948;9.208;2024-01-11T13:01:49;-0.40;99.90
18091;DHT22;9172;49.948;9.208;2024-01-11T13:04:18;-0.30;99.90
18091;DHT22;9172;49.948;9.208;2024-01-11T13:09:24;-0.20;99.90
18091;DHT22;9172;49.948;9.208;2024-01-11T13:11:53;-0.10;99.90
18091;DHT22;9172;49.948;9.208;2024-01-11T13:14:21;-0.10;99.90
18091;DHT22;9172;49.948;9.208;2024-01-11T13:16:50;0.00;99.90
18091;DHT22;9172;49.948;9.208;2024-01-11T13:19:18;0.00;99.90
18091;DHT22;9172;49.948;9.208;2024-01-11T13:21:47;0.00;99.90
18091;DHT22;9172;49.948;9.208;2024-01-11T13:24:16;0.10;99.90
18091;DHT22;9172;49.948;9.208;2024-01-11T13:26:44;0.10;99.90
18091;DHT22;9172;49.948;9.208;2024-01-11T13:29:13;0.10;99.90
18091;DHT22;9172;49.948;9.208;2024-01-11T13:31:41;0.10;99.90
18091;DHT22;9172;49.948;9.208;2024-01-11T13:34:10;0.10;99.90
18091;DHT22;9172;49.948;9.208;2024-01-11T13:36:39;0.10;99.90
18091;DHT22;9172;49.948;9.208;2024-01-11T13:39:07;0.10;99.90
18091;DHT22;9172;49.948;9.208;2024-01-11T13:41:36;0.10;99.90
18091;DHT22;9172;49.948;9.208;2024-01-11T13:44:05;0.10;99.90
18091;DHT22;9172;49.948;9.208;2024-01-11T13:46:33;0.10;99.90
18091;DHT22;9172;49.948;9.208;2024-01-11T13:49:02;0.10;99.90
18091;DHT22;9172;49.948;9.208;2024-01-11T13:51:32;0.10;99.90
18091;DHT22;9172;49.948;9.208;2024-01-11T13:54:00;0.10;99.90
18091;DHT22;9172;49.948;9.208;2024-01-11T13:56:29;0.10;99.90
18091;DHT22;9172;49.948;9.208;2024-01-11T13:58:58;0.10;99.90
18091;DHT22;9172;49.948;9.208;2024-01-11T14:01:26;0.10;99.90
18091;DHT22;9172;49.948;9.208;2024-01-11T14:03:55;0.20;99.90
18091;DHT22;9172;49.948;9.208;2024-01-11T14:06:23;0.20;99.90
18091;DHT22;9172;49.948;9.208;2024-01-11T14:08:52;0.20;99.90
18091;DHT22;9172;49.948;9.208;2024-01-11T14:11:20;0.10;99.90
18091;DHT22;9172;49.948;9.208;2024-01-11T14:13:50;0.10;99.90
18091;DHT22;9172;49.948;9.208;2024-01-11T14:16:18;0.10;99.90
18091;DHT22;9172;49.948;9.208;2024-01-11T14:18:47;0.10;99.90
18091;DHT22;9172;49.948;9.208;2024-01-11T14:21:16;0.10;99.90
18091;DHT22;9172;49.948;9.208;2024-01-11T14:23:45;0.10;99.90
18091;DHT22;9172;49.948;9.208;2024-01-11T14:26:13;0.10;99.90
18091;DHT22;9172;49.948;9.208;2024-01-11T14:28:42;0.10;99.90
18091;DHT22;9172;49.948;9.208;2024-01-11T14:31:11;0.10;99.90
18091;DHT22;9172;49.948;9.208;2024-01-11T14:33:39;0.10;99.90
18091;DHT22;9172;49.948;9.208;2024-01-11T14:36:08;0.20;99.90
18091;DHT22;9172;49.948;9.208;2024-01-11T14:38:37;0.10;99.90
18091;DHT22;9172;49.948;9.208;2024-01-11T14:41:05;0.10;99.90
18091;DHT22;9172;49.948;9.208;2024-01-11T14:43:34;0.10;99.90
18091;DHT22;9172;49.948;9.208;2024-01-11T14:46:03;0.20;99.90
18091;DHT22;9172;49.948;9.208;2024-01-11T14:48:32;0.20;99.90
18091;DHT22;9172;49.948;9.208;2024-01-11T14:51:01;0.20;99.90
18091;DHT22;9172;49.948;9.208;2024-01-11T14:53:31;0.30;99.90
18091;DHT22;9172;49.948;9.208;2024-01-11T14:56:00;0.30;99.90
18091;DHT22;9172;49.948;9.208;2024-01-11T14:58:28;0.30;99.90
18091;DHT22;9172;49.948;9.208;2024-01-11T15:00:57;0.30;99.90
18091;DHT22;9172;49.948;9.208;2024-01-11T15:03:26;0.30;99.90
18091;DHT22;9172;49.948;9.208;2024-01-11T15:05:54;0.30;99.90
18091;DHT22;9172;49.948;9.208;2024-01-11T15:08:23;0.30;99.90
18091;DHT22;9172;49.948;9.208;2024-01-11T15:10:51;0.20;99.90
18091;DHT22;9172;49.948;9.208;2024-01-11T15:13:20;0.20;99.90
18091;DHT22;9172;49.948;9.208;2024-01-11T15:15:48;0.20;99.90
18091;DHT22;9172;49.948;9.208;2024-01-11T15:18:17;0.20;99.90
18091;DHT22;9172;49.948;9.208;2024-01-11T15:20:46;0.20;99.90
18091;DHT22;9172;49.948;9.208;2024-01-11T15:23:15;0.20;99.90
18091;DHT22;9172;49.948;9.208;2024-01-11T15:25:43;0.20;99.90
18091;DHT22;9172;49.948;9.208;2024-01-11T15:28:12;0.20;99.90
18091;DHT22;9172;49.948;9.208;2024-01-11T15:30:41;0.10;99.90
18091;DHT22;9172;49.948;9.208;2024-01-11T15:33:09;0.10;99.90
18091;DHT22;9172;49.948;9.208;2024-01-11T15:35:38;0.10;99.90
18091;DHT22;9172;49.948;9.208;2024-01-11T15:38:07;0.10;99.90
18091;DHT22;9172;49.948;9.208;2024-01-11T15:43:12;0.00;99.90
18091;DHT22;9172;49.948;9.208;2024-01-11T15:45:41;-0.10;99.90
18091;DHT22;9172;49.948;9.208;2024-01-11T15:48:10;-0.20;99.90
18091;DHT22;9172;49.948;9.208;2024-01-11T15:50:38;-0.40;99.90
18091;DHT22;9172;49.948;9.208;2024-01-11T15:53:07;-0.40;99.90
18091;DHT22;9172;49.948;9.208;2024-01-11T15:55:35;-0.40;99.90
18091;DHT22;9172;49.948;9.208;2024-01-11T15:58:04;-0.30;99.90
18091;DHT22;9172;49.948;9.208;2024-01-11T16:00:33;-0.30;99.90
18091;DHT22;9172;49.948;9.208;2024-01-11T16:03:01;-0.30;99.90
18091;DHT22;9172;49.948;9.208;2024-01-11T16:05:30;-0.50;99.90
18091;DHT22;9172;49.948;9.208;2024-01-11T16:07:58;-0.50;99.90
18091;DHT22;9172;49.948;9.208;2024-01-11T16:10:27;-0.50;99.90
18091;DHT22;9172;49.948;9.208;2024-01-11T16:12:56;-0.50;99.90
18091;DHT22;9172;49.948;9.208;2024-01-11T16:15:24;-0.40;99.90
18091;DHT22;9172;49.948;9.208;2024-01-11T16:17:53;-0.40;99.90
18091;DHT22;9172;49.948;9.208;2024-01-11T16:20:21;-0.40;99.90
18091;DHT22;9172;49.948;9.208;2024-01-11T16:22:50;-0.40;99.90
18091;DHT22;9172;49.948;9.208;2024-01-11T16:25:18;-0.40;99.90
18091;DHT22;9172;49.948;9.208;2024-01-11T16:27:47;-0.40;99.90